sensor_id;sensor_type;location;lat;lon;timestamp;P1;durP1;ratioP1;P2;durP2;ratioP2
12469;SDS011;36499;46.484;13.832;2022-10-15T00:01:14;42.93;;;32.83;;
12469;SDS011;36499;46.484;13.832;2022-10-15T00:03:44;40.57;;;32.10;;
12469;SDS011;36499;46.484;13.832;2022-10-15T00:06:12;44.57;;;34.67;;
12469;SDS011;36499;46.484;13.832;2022-10-15T00:08:42;46.27;;;35.40;;
12469;SDS011;36499;46.484;13.832;2022-10-15T00:11:12;45.97;;;35.03;;
12469;SDS011;36499;46.484;13.832;2022-10-15T00:13:44;45.57;;;35.17;;
12469;SDS011;36499;46.484;13.832;2022-10-15T00:16:12;39.57;;;31.70;;
12469;SDS011;36499;46.484;13.832;2022-10-15T00:18:44;39.73;;;32.03;;
12469;SDS011;36499;46.484;13.832;2022-10-15T00:21:14;39.00;;;31.07;;
12469;SDS011;36499;46.484;13.832;2022-10-15T00:23:45;43.00;;;32.17;;
12469;SDS011;36499;46.484;13.832;2022-10-15T00:26:14;40.93;;;30.67;;
12469;SDS011;36499;46.484;13.832;2022-10-15T00:28:44;40.97;;;31.07;;
12469;SDS011;36499;46.484;13.832;2022-10-15T00:31:14;43.55;;;33.00;;
12469;SDS011;36499;46.484;13.832;2022-10-15T00:33:50;42.23;;;33.37;;
12469;SDS011;36499;46.484;13.832;2022-10-15T00:36:22;40.07;;;30.90;;
12469;SDS011;36499;46.484;13.832;2022-10-15T00:38:53;40.53;;;31.07;;
12469;SDS011;36499;46.484;13.832;2022-10-15T00:41:24;42.90;;;33.50;;
12469;SDS011;36499;46.484;13.832;2022-10-15T00:43:55;40.07;;;30.77;;
12469;SDS011;36499;46.484;13.832;2022-10-15T00:46:26;39.70;;;31.37;;
12469;SDS011;36499;46.484;13.832;2022-10-15T00:49:01;39.20;;;30.87;;
12469;SDS011;36499;46.484;13.832;2022-10-15T00:51:39;38.30;;;30.30;;
12469;SDS011;36499;46.484;13.832;2022-10-15T00:54:14;39.80;;;30.13;;
12469;SDS011;36499;46.484;13.832;2022-10-15T00:56:42;39.27;;;29.57;;
12469;SDS011;36499;46.484;13.832;2022-10-15T00:59:14;36.77;;;29.87;;
12469;SDS011;36499;46.484;13.832;2022-10-15T01:01:45;38.53;;;30.27;;
12469;SDS011;36499;46.484;13.832;2022-10-15T01:04:14;36.67;;;29.77;;
12469;SDS011;36499;46.484;13.832;2022-10-15T01:06:46;40.43;;;32.40;;
12469;SDS011;36499;46.484;13.832;2022-10-15T01:09:13;37.70;;;30.10;;
12469;SDS011;36499;46.484;13.832;2022-10-15T01:11:41;40.83;;;32.37;;
12469;SDS011;36499;46.484;13.832;2022-10-15T01:14:16;36.83;;;30.80;;
12469;SDS011;36499;46.484;13.832;2022-10-15T01:17:03;37.73;;;30.57;;
12469;SDS011;36499;46.484;13.832;2022-10-15T01:22:55;43.97;;;30.83;;
12469;SDS011;36499;46.484;13.832;2022-10-15T01:25:54;38.03;;;31.00;;
12469;SDS011;36499;46.484;13.832;2022-10-15T01:28:45;37.37;;;30.13;;
12469;SDS011;36499;46.484;13.832;2022-10-15T01:31:28;40.13;;;29.90;;
12469;SDS011;36499;46.484;13.832;2022-10-15T01:34:09;40.63;;;30.30;;
12469;SDS011;36499;46.484;13.832;2022-10-15T01:36:47;39.97;;;32.00;;
12469;SDS011;36499;46.484;13.832;2022-10-15T01:39:25;46.03;;;33.77;;
12469;SDS011;36499;46.484;13.832;2022-10-15T01:41:59;45.07;;;32.83;;
12469;SDS011;36499;46.484;13.832;2022-10-15T01:44:41;41.30;;;31.50;;
12469;SDS011;36499;46.484;13.832;2022-10-15T01:47:19;42.00;;;31.67;;
12469;SDS011;36499;46.484;13.832;2022-10-15T01:49:53;40.63;;;31.97;;
12469;SDS011;36499;46.484;13.832;2022-10-15T01:52:29;43.33;;;33.37;;
12469;SDS011;36499;46.484;13.832;2022-10-15T01:55:01;45.10;;;33.93;;
12469;SDS011;36499;46.484;13.832;2022-10-15T01:57:33;42.90;;;34.13;;
12469;SDS011;36499;46.484;13.832;2022-10-15T02:00:02;45.43;;;34.63;;
12469;SDS011;36499;46.484;13.832;2022-10-15T02:02:32;45.80;;;33.83;;
12469;SDS011;36499;46.484;13.832;2022-10-15T02:04:59;45.23;;;33.53;;
12469;SDS011;36499;46.484;13.832;2022-10-15T02:07:29;42.27;;;33.00;;
12469;SDS011;36499;46.484;13.832;2022-10-15T02:10:10;43.80;;;33.13;;
12469;SDS011;36499;46.484;13.832;2022-10-15T02:12:50;36.07;;;29.83;;
12469;SDS011;36499;46.484;13.832;2022-10-15T02:15:38;38.23;;;29.47;;
12469;SDS011;36499;46.484;13.832;2022-10-15T02:18:22;43.03;;;32.97;;
12469;SDS011;36499;46.484;13.832;2022-10-15T02:21:00;42.90;;;34.03;;
12469;SDS011;36499;46.484;13.832;2022-10-15T02:23:41;40.63;;;32.90;;
12469;SDS011;36499;46.484;13.832;2022-10-15T02:26:17;44.90;;;33.53;;
12469;SDS011;36499;46.484;13.832;2022-10-15T02:28:51;45.50;;;34.43;;
12469;SDS011;36499;46.484;13.832;2022-10-15T02:31:30;48.13;;;35.43;;
12469;SDS011;36499;46.484;13.832;2022-10-15T02:34:06;50.53;;;37.13;;
12469;SDS011;36499;46.484;13.832;2022-10-15T02:36:40;53.63;;;37.47;;
12469;SDS011;36499;46.484;13.832;2022-10-15T02:39:09;51.27;;;37.63;;
12469;SDS011;36499;46.484;13.832;2022-10-15T02:41:41;52.53;;;38.83;;
12469;SDS011;36499;46.484;13.832;2022-10-15T02:44:11;46.10;;;36.93;;
12469;SDS011;36499;46.484;13.832;2022-10-15T02:46:38;49.27;;;37.07;;
12469;SDS011;36499;46.484;13.832;2022-10-15T02:49:07;51.80;;;37.90;;
12469;SDS011;36499;46.484;13.832;2022-10-15T02:51:36;45.90;;;34.83;;
12469;SDS011;36499;46.484;13.832;2022-10-15T02:54:04;49.37;;;37.47;;
12469;SDS011;36499;46.484;13.832;2022-10-15T02:56:32;51.97;;;37.67;;
12469;SDS011;36499;46.484;13.832;2022-10-15T02:59:00;47.53;;;37.43;;
12469;SDS011;36499;46.484;13.832;2022-10-15T03:01:30;48.17;;;36.27;;
12469;SDS011;36499;46.484;13.832;2022-10-15T03:03:58;49.67;;;35.90;;
12469;SDS011;36499;46.484;13.832;2022-10-15T03:06:28;46.70;;;35.70;;
12469;SDS011;36499;46.484;13.832;2022-10-15T03:08:58;52.70;;;35.43;;
12469;SDS011;36499;46.484;13.832;2022-10-15T03:11:25;45.03;;;34.23;;
12469;SDS011;36499;46.484;13.832;2022-10-15T03:13:52;43.50;;;33.23;;
12469;SDS011;36499;46.484;13.832;2022-10-15T03:16:19;44.20;;;33.87;;
12469;SDS011;36499;46.484;13.832;2022-10-15T03:18:47;43.83;;;32.53;;
12469;SDS011;36499;46.484;13.832;2022-10-15T03:21:14;44.77;;;33.23;;
12469;SDS011;36499;46.484;13.832;2022-10-15T03:23:45;41.53;;;31.70;;
12469;SDS011;36499;46.484;13.832;2022-10-15T03:26:16;47.53;;;32.53;;
12469;SDS011;36499;46.484;13.832;2022-10-15T03:28:46;39.03;;;30.67;;
12469;SDS011;36499;46.484;13.832;2022-10-15T03:31:13;40.30;;;31.57;;
12469;SDS011;36499;46.484;13.832;2022-10-15T03:33:40;42.17;;;31.87;;
12469;SDS011;36499;46.484;13.832;2022-10-15T03:36:08;43.37;;;33.63;;
12469;SDS011;36499;46.484;13.832;2022-10-15T03:38:35;43.47;;;30.07;;
12469;SDS011;36499;46.484;13.832;2022-10-15T03:41:04;40.00;;;30.27;;
12469;SDS011;36499;46.484;13.832;2022-10-15T03:43:32;35.43;;;29.00;;
12469;SDS011;36499;46.484;13.832;2022-10-15T03:46:00;42.80;;;31.63;;
12469;SDS011;36499;46.484;13.832;2022-10-15T03:48:28;44.20;;;33.10;;
12469;SDS011;36499;46.484;13.832;2022-10-15T03:50:55;41.40;;;31.60;;
12469;SDS011;36499;46.484;13.832;2022-10-15T03:53:23;44.83;;;32.20;;
12469;SDS011;36499;46.484;13.832;2022-10-15T03:55:50;41.30;;;32.83;;
12469;SDS011;36499;46.484;13.832;2022-10-15T03:58:18;44.67;;;32.37;;
12469;SDS011;36499;46.484;13.832;2022-10-15T04:00:45;40.93;;;32.80;;
12469;SDS011;36499;46.484;13.832;2022-10-15T04:03:13;41.03;;;32.40;;
12469;SDS011;36499;46.484;13.832;2022-10-15T04:05:40;44.67;;;34.07;;
12469;SDS011;36499;46.484;13.832;2022-10-15T04:08:07;43.07;;;32.17;;
12469;SDS011;36499;46.484;13.832;2022-10-15T04:10:35;43.30;;;31.63;;
12469;SDS011;36499;46.484;13.832;2022-10-15T04:13:02;42.53;;;32.53;;
12469;SDS011;36499;46.484;13.832;2022-10-15T04:15:34;36.43;;;30.40;;
12469;SDS011;36499;46.484;13.832;2022-10-15T04:18:09;38.97;;;32.07;;
12469;SDS011;36499;46.484;13.832;2022-10-15T04:20:37;41.87;;;30.57;;
12469;SDS011;36499;46.484;13.832;2022-10-15T04:23:06;44.53;;;32.60;;
12469;SDS011;36499;46.484;13.832;2022-10-15T04:25:34;53.33;;;36.63;;
12469;SDS011;36499;46.484;13.832;2022-10-15T04:28:03;44.93;;;33.33;;
12469;SDS011;36499;46.484;13.832;2022-10-15T04:30:35;43.60;;;32.53;;
12469;SDS011;36499;46.484;13.832;2022-10-15T04:33:02;45.33;;;33.37;;
12469;SDS011;36499;46.484;13.832;2022-10-15T04:35:29;45.87;;;32.63;;
12469;SDS011;36499;46.484;13.832;2022-10-15T04:37:56;44.87;;;31.20;;
12469;SDS011;36499;46.484;13.832;2022-10-15T04:40:24;41.53;;;32.53;;
12469;SDS011;36499;46.484;13.832;2022-10-15T04:42:52;43.33;;;32.47;;
12469;SDS011;36499;46.484;13.832;2022-10-15T04:45:19;42.83;;;31.30;;
12469;SDS011;36499;46.484;13.832;2022-10-15T04:47:48;39.17;;;31.43;;
12469;SDS011;36499;46.484;13.832;2022-10-15T04:50:15;41.13;;;31.93;;
12469;SDS011;36499;46.484;13.832;2022-10-15T04:52:42;38.50;;;29.10;;
12469;SDS011;36499;46.484;13.832;2022-10-15T04:55:10;47.20;;;34.30;;
12469;SDS011;36499;46.484;13.832;2022-10-15T04:57:43;43.70;;;32.83;;
12469;SDS011;36499;46.484;13.832;2022-10-15T05:00:10;40.93;;;32.07;;
12469;SDS011;36499;46.484;13.832;2022-10-15T05:02:49;39.47;;;30.93;;
12469;SDS011;36499;46.484;13.832;2022-10-15T05:05:16;40.57;;;31.03;;
12469;SDS011;36499;46.484;13.832;2022-10-15T05:07:43;41.37;;;30.73;;
12469;SDS011;36499;46.484;13.832;2022-10-15T05:10:10;41.43;;;31.03;;
12469;SDS011;36499;46.484;13.832;2022-10-15T05:12:37;40.80;;;31.20;;
12469;SDS011;36499;46.484;13.832;2022-10-15T05:15:04;36.47;;;29.40;;
12469;SDS011;36499;46.484;13.832;2022-10-15T05:17:32;40.27;;;30.90;;
12469;SDS011;36499;46.484;13.832;2022-10-15T05:20:01;40.30;;;30.97;;
12469;SDS011;36499;46.484;13.832;2022-10-15T05:22:29;41.47;;;32.83;;
12469;SDS011;36499;46.484;13.832;2022-10-15T05:24:56;41.03;;;33.33;;
12469;SDS011;36499;46.484;13.832;2022-10-15T05:27:23;39.63;;;32.30;;
12469;SDS011;36499;46.484;13.832;2022-10-15T05:29:50;38.70;;;31.23;;
12469;SDS011;36499;46.484;13.832;2022-10-15T05:32:17;43.93;;;31.27;;
12469;SDS011;36499;46.484;13.832;2022-10-15T05:34:44;37.70;;;30.97;;
12469;SDS011;36499;46.484;13.832;2022-10-15T05:37:14;36.63;;;29.90;;
12469;SDS011;36499;46.484;13.832;2022-10-15T05:39:42;41.10;;;30.17;;
12469;SDS011;36499;46.484;13.832;2022-10-15T05:42:09;40.30;;;31.47;;
12469;SDS011;36499;46.484;13.832;2022-10-15T05:44:36;38.63;;;31.13;;
12469;SDS011;36499;46.484;13.832;2022-10-15T05:47:04;38.97;;;31.13;;
12469;SDS011;36499;46.484;13.832;2022-10-15T05:49:35;37.83;;;30.83;;
12469;SDS011;36499;46.484;13.832;2022-10-15T05:52:03;37.53;;;29.80;;
12469;SDS011;36499;46.484;13.832;2022-10-15T05:54:32;38.93;;;29.47;;
12469;SDS011;36499;46.484;13.832;2022-10-15T05:56:59;35.77;;;29.60;;
12469;SDS011;36499;46.484;13.832;2022-10-15T05:59:26;41.43;;;32.33;;
12469;SDS011;36499;46.484;13.832;2022-10-15T06:01:53;39.17;;;30.53;;
12469;SDS011;36499;46.484;13.832;2022-10-15T06:04:20;35.87;;;30.53;;
12469;SDS011;36499;46.484;13.832;2022-10-15T06:06:48;42.00;;;33.10;;
12469;SDS011;36499;46.484;13.832;2022-10-15T06:09:15;41.67;;;33.77;;
12469;SDS011;36499;46.484;13.832;2022-10-15T06:11:43;42.90;;;33.97;;
12469;SDS011;36499;46.484;13.832;2022-10-15T06:14:11;43.10;;;32.30;;
12469;SDS011;36499;46.484;13.832;2022-10-15T06:16:39;44.83;;;35.10;;
12469;SDS011;36499;46.484;13.832;2022-10-15T06:19:07;42.37;;;33.20;;
12469;SDS011;36499;46.484;13.832;2022-10-15T06:21:34;39.53;;;30.97;;
12469;SDS011;36499;46.484;13.832;2022-10-15T06:24:01;44.10;;;31.40;;
12469;SDS011;36499;46.484;13.832;2022-10-15T06:26:28;38.50;;;30.57;;
12469;SDS011;36499;46.484;13.832;2022-10-15T06:28:56;41.30;;;32.27;;
12469;SDS011;36499;46.484;13.832;2022-10-15T06:31:24;44.27;;;33.70;;
12469;SDS011;36499;46.484;13.832;2022-10-15T06:33:51;41.03;;;32.93;;
12469;SDS011;36499;46.484;13.832;2022-10-15T06:36:18;44.23;;;33.83;;
12469;SDS011;36499;46.484;13.832;2022-10-15T06:38:48;46.77;;;33.77;;
12469;SDS011;36499;46.484;13.832;2022-10-15T06:41:15;46.73;;;34.53;;
12469;SDS011;36499;46.484;13.832;2022-10-15T06:43:43;47.03;;;33.67;;
12469;SDS011;36499;46.484;13.832;2022-10-15T06:46:11;42.43;;;33.63;;
12469;SDS011;36499;46.484;13.832;2022-10-15T06:48:38;40.57;;;32.23;;
12469;SDS011;36499;46.484;13.832;2022-10-15T06:51:05;42.63;;;33.63;;
12469;SDS011;36499;46.484;13.832;2022-10-15T06:53:33;41.80;;;33.83;;
12469;SDS011;36499;46.484;13.832;2022-10-15T06:56:00;39.10;;;33.23;;
12469;SDS011;36499;46.484;13.832;2022-10-15T06:58:29;46.33;;;35.60;;
12469;SDS011;36499;46.484;13.832;2022-10-15T07:01:00;42.90;;;34.10;;
12469;SDS011;36499;46.484;13.832;2022-10-15T07:03:29;47.17;;;35.73;;
12469;SDS011;36499;46.484;13.832;2022-10-15T07:06:03;46.77;;;34.97;;
12469;SDS011;36499;46.484;13.832;2022-10-15T07:08:34;45.77;;;35.70;;
12469;SDS011;36499;46.484;13.832;2022-10-15T07:11:02;46.10;;;35.83;;
12469;SDS011;36499;46.484;13.832;2022-10-15T07:13:32;42.97;;;34.83;;
12469;SDS011;36499;46.484;13.832;2022-10-15T07:16:02;40.40;;;33.93;;
12469;SDS011;36499;46.484;13.832;2022-10-15T07:18:31;42.47;;;34.57;;
12469;SDS011;36499;46.484;13.832;2022-10-15T07:20:59;42.57;;;35.03;;
12469;SDS011;36499;46.484;13.832;2022-10-15T07:23:27;46.73;;;34.97;;
12469;SDS011;36499;46.484;13.832;2022-10-15T07:25:55;45.53;;;36.17;;
12469;SDS011;36499;46.484;13.832;2022-10-15T07:28:23;47.60;;;36.67;;
12469;SDS011;36499;46.484;13.832;2022-10-15T07:30:52;43.77;;;35.30;;
12469;SDS011;36499;46.484;13.832;2022-10-15T07:33:19;42.87;;;35.37;;
12469;SDS011;36499;46.484;13.832;2022-10-15T07:35:48;43.23;;;36.13;;
12469;SDS011;36499;46.484;13.832;2022-10-15T07:38:15;43.23;;;35.93;;
12469;SDS011;36499;46.484;13.832;2022-10-15T07:40:42;47.60;;;35.57;;
12469;SDS011;36499;46.484;13.832;2022-10-15T07:43:10;44.60;;;35.00;;
12469;SDS011;36499;46.484;13.832;2022-10-15T07:45:37;42.40;;;35.70;;
12469;SDS011;36499;46.484;13.832;2022-10-15T07:48:05;41.40;;;33.57;;
12469;SDS011;36499;46.484;13.832;2022-10-15T07:50:32;42.50;;;34.30;;
12469;SDS011;36499;46.484;13.832;2022-10-15T07:53:01;43.97;;;36.23;;
12469;SDS011;36499;46.484;13.832;2022-10-15T07:55:29;44.73;;;35.43;;
12469;SDS011;36499;46.484;13.832;2022-10-15T07:57:56;38.57;;;32.67;;
12469;SDS011;36499;46.484;13.832;2022-10-15T08:00:24;42.73;;;35.37;;
12469;SDS011;36499;46.484;13.832;2022-10-15T08:02:52;42.57;;;34.60;;
12469;SDS011;36499;46.484;13.832;2022-10-15T08:05:19;39.57;;;34.17;;
12469;SDS011;36499;46.484;13.832;2022-10-15T08:07:46;41.23;;;34.67;;
12469;SDS011;36499;46.484;13.832;2022-10-15T08:10:15;42.87;;;34.97;;
12469;SDS011;36499;46.484;13.832;2022-10-15T08:12:42;43.67;;;35.17;;
12469;SDS011;36499;46.484;13.832;2022-10-15T08:15:10;42.87;;;34.53;;
12469;SDS011;36499;46.484;13.832;2022-10-15T08:17:37;42.13;;;33.53;;
12469;SDS011;36499;46.484;13.832;2022-10-15T08:20:04;41.27;;;34.87;;
12469;SDS011;36499;46.484;13.832;2022-10-15T08:22:32;41.63;;;33.23;;
12469;SDS011;36499;46.484;13.832;2022-10-15T08:25:00;44.47;;;36.37;;
12469;SDS011;36499;46.484;13.832;2022-10-15T08:27:29;43.73;;;34.57;;
12469;SDS011;36499;46.484;13.832;2022-10-15T08:29:57;41.77;;;34.77;;
12469;SDS011;36499;46.484;13.832;2022-10-15T08:32:24;43.90;;;34.40;;
12469;SDS011;36499;46.484;13.832;2022-10-15T08:34:51;40.97;;;34.33;;
12469;SDS011;36499;46.484;13.832;2022-10-15T08:37:18;43.67;;;33.97;;
12469;SDS011;36499;46.484;13.832;2022-10-15T08:39:46;37.67;;;32.93;;
12469;SDS011;36499;46.484;13.832;2022-10-15T08:42:13;39.00;;;34.03;;
12469;SDS011;36499;46.484;13.832;2022-10-15T08:44:49;39.27;;;34.33;;
12469;SDS011;36499;46.484;13.832;2022-10-15T08:47:25;42.13;;;33.83;;
12469;SDS011;36499;46.484;13.832;2022-10-15T08:50:02;40.33;;;33.37;;
12469;SDS011;36499;46.484;13.832;2022-10-15T08:52:44;40.57;;;32.77;;
12469;SDS011;36499;46.484;13.832;2022-10-15T08:55:15;37.83;;;33.63;;
12469;SDS011;36499;46.484;13.832;2022-10-15T08:57:45;37.27;;;31.67;;
12469;SDS011;36499;46.484;13.832;2022-10-15T09:00:24;35.07;;;31.37;;
12469;SDS011;36499;46.484;13.832;2022-10-15T09:03:01;34.27;;;30.27;;
12469;SDS011;36499;46.484;13.832;2022-10-15T09:05:37;35.40;;;30.97;;
12469;SDS011;36499;46.484;13.832;2022-10-15T09:08:15;35.60;;;31.20;;
12469;SDS011;36499;46.484;13.832;2022-10-15T09:10:49;38.53;;;31.87;;
12469;SDS011;36499;46.484;13.832;2022-10-15T09:13:23;40.80;;;33.07;;
12469;SDS011;36499;46.484;13.832;2022-10-15T09:15:59;42.87;;;36.17;;
12469;SDS011;36499;46.484;13.832;2022-10-15T09:18:34;35.43;;;31.17;;
12469;SDS011;36499;46.484;13.832;2022-10-15T09:21:08;36.23;;;31.00;;
12469;SDS011;36499;46.484;13.832;2022-10-15T09:23:39;33.00;;;29.40;;
12469;SDS011;36499;46.484;13.832;2022-10-15T09:26:08;35.40;;;31.60;;
12469;SDS011;36499;46.484;13.832;2022-10-15T09:28:56;32.43;;;29.00;;
12469;SDS011;36499;46.484;13.832;2022-10-15T09:31:47;52.63;;;44.70;;
12469;SDS011;36499;46.484;13.832;2022-10-15T09:34:25;43.13;;;37.67;;
12469;SDS011;36499;46.484;13.832;2022-10-15T09:37:02;36.57;;;32.63;;
12469;SDS011;36499;46.484;13.832;2022-10-15T09:39:42;30.83;;;27.53;;
12469;SDS011;36499;46.484;13.832;2022-10-15T09:42:52;34.63;;;28.47;;
12469;SDS011;36499;46.484;13.832;2022-10-15T09:45:22;29.83;;;26.73;;
12469;SDS011;36499;46.484;13.832;2022-10-15T09:47:55;30.53;;;27.27;;
12469;SDS011;36499;46.484;13.832;2022-10-15T09:50:26;31.20;;;28.00;;
12469;SDS011;36499;46.484;13.832;2022-10-15T09:53:05;29.00;;;25.97;;
12469;SDS011;36499;46.484;13.832;2022-10-15T09:55:45;29.43;;;25.90;;
12469;SDS011;36499;46.484;13.832;2022-10-15T09:58:17;28.20;;;25.30;;
12469;SDS011;36499;46.484;13.832;2022-10-15T10:00:53;31.57;;;26.00;;
12469;SDS011;36499;46.484;13.832;2022-10-15T10:03:27;28.77;;;25.00;;
12469;SDS011;36499;46.484;13.832;2022-10-15T10:06:01;30.97;;;26.13;;
12469;SDS011;36499;46.484;13.832;2022-10-15T10:08:33;28.13;;;25.13;;
12469;SDS011;36499;46.484;13.832;2022-10-15T10:11:05;27.07;;;24.27;;
12469;SDS011;36499;46.484;13.832;2022-10-15T10:13:38;27.33;;;24.23;;
12469;SDS011;36499;46.484;13.832;2022-10-15T10:16:11;26.57;;;23.90;;
12469;SDS011;36499;46.484;13.832;2022-10-15T10:18:42;27.43;;;24.03;;
12469;SDS011;36499;46.484;13.832;2022-10-15T10:21:29;28.57;;;23.90;;
12469;SDS011;36499;46.484;13.832;2022-10-15T10:23:59;26.13;;;23.33;;
12469;SDS011;36499;46.484;13.832;2022-10-15T10:26:56;27.97;;;23.53;;
12469;SDS011;36499;46.484;13.832;2022-10-15T10:29:24;27.77;;;23.73;;
12469;SDS011;36499;46.484;13.832;2022-10-15T10:31:54;26.57;;;23.00;;
12469;SDS011;36499;46.484;13.832;2022-10-15T10:34:25;26.60;;;23.80;;
12469;SDS011;36499;46.484;13.832;2022-10-15T10:36:55;25.13;;;22.13;;
12469;SDS011;36499;46.484;13.832;2022-10-15T10:39:24;27.97;;;22.80;;
12469;SDS011;36499;46.484;13.832;2022-10-15T10:41:54;23.60;;;21.20;;
12469;SDS011;36499;46.484;13.832;2022-10-15T10:44:27;28.10;;;23.40;;
12469;SDS011;36499;46.484;13.832;2022-10-15T10:47:00;23.20;;;20.87;;
12469;SDS011;36499;46.484;13.832;2022-10-15T10:49:44;24.57;;;20.27;;
12469;SDS011;36499;46.484;13.832;2022-10-15T10:52:19;24.10;;;21.50;;
12469;SDS011;36499;46.484;13.832;2022-10-15T10:54:52;26.23;;;20.30;;
12469;SDS011;36499;46.484;13.832;2022-10-15T10:57:33;22.37;;;20.10;;
12469;SDS011;36499;46.484;13.832;2022-10-15T11:00:11;23.67;;;21.20;;
12469;SDS011;36499;46.484;13.832;2022-10-15T11:02:45;28.23;;;23.37;;
12469;SDS011;36499;46.484;13.832;2022-10-15T11:05:14;30.67;;;22.70;;
12469;SDS011;36499;46.484;13.832;2022-10-15T11:07:50;22.33;;;20.03;;
12469;SDS011;36499;46.484;13.832;2022-10-15T11:10:28;26.60;;;21.90;;
12469;SDS011;36499;46.484;13.832;2022-10-15T11:13:08;25.27;;;22.57;;
12469;SDS011;36499;46.484;13.832;2022-10-15T11:16:00;26.53;;;23.83;;
12469;SDS011;36499;46.484;13.832;2022-10-15T11:18:44;27.20;;;24.30;;
12469;SDS011;36499;46.484;13.832;2022-10-15T11:21:41;22.53;;;20.13;;
12469;SDS011;36499;46.484;13.832;2022-10-15T11:24:31;23.77;;;21.27;;
12469;SDS011;36499;46.484;13.832;2022-10-15T11:27:14;27.40;;;22.70;;
12469;SDS011;36499;46.484;13.832;2022-10-15T11:30:01;24.13;;;21.70;;
12469;SDS011;36499;46.484;13.832;2022-10-15T11:32:55;24.20;;;21.57;;
12469;SDS011;36499;46.484;13.832;2022-10-15T11:35:39;22.03;;;19.73;;
12469;SDS011;36499;46.484;13.832;2022-10-15T11:38:18;26.03;;;21.17;;
12469;SDS011;36499;46.484;13.832;2022-10-15T11:40:57;22.83;;;20.43;;
12469;SDS011;36499;46.484;13.832;2022-10-15T11:43:47;21.77;;;19.40;;
12469;SDS011;36499;46.484;13.832;2022-10-15T11:46:34;23.53;;;21.17;;
12469;SDS011;36499;46.484;13.832;2022-10-15T11:49:16;22.40;;;19.73;;
12469;SDS011;36499;46.484;13.832;2022-10-15T11:52:12;23.50;;;20.73;;
12469;SDS011;36499;46.484;13.832;2022-10-15T11:55:13;24.57;;;19.57;;
12469;SDS011;36499;46.484;13.832;2022-10-15T11:57:53;21.90;;;19.60;;
12469;SDS011;36499;46.484;13.832;2022-10-15T12:00:30;24.03;;;19.57;;
12469;SDS011;36499;46.484;13.832;2022-10-15T12:03:16;22.57;;;20.13;;
12469;SDS011;36499;46.484;13.832;2022-10-15T12:05:49;23.50;;;20.40;;
12469;SDS011;36499;46.484;13.832;2022-10-15T12:08:22;23.67;;;19.53;;
12469;SDS011;36499;46.484;13.832;2022-10-15T12:11:06;23.53;;;21.13;;
12469;SDS011;36499;46.484;13.832;2022-10-15T12:13:48;21.80;;;19.07;;
12469;SDS011;36499;46.484;13.832;2022-10-15T12:16:27;21.47;;;19.17;;
12469;SDS011;36499;46.484;13.832;2022-10-15T12:19:09;21.23;;;19.03;;
12469;SDS011;36499;46.484;13.832;2022-10-15T12:21:43;22.53;;;19.23;;
12469;SDS011;36499;46.484;13.832;2022-10-15T12:24:53;21.67;;;19.37;;
12469;SDS011;36499;46.484;13.832;2022-10-15T12:27:23;23.23;;;20.83;;
12469;SDS011;36499;46.484;13.832;2022-10-15T12:30:17;21.53;;;19.23;;
12469;SDS011;36499;46.484;13.832;2022-10-15T12:32:51;21.60;;;19.30;;
12469;SDS011;36499;46.484;13.832;2022-10-15T12:35:23;24.00;;;21.07;;
12469;SDS011;36499;46.484;13.832;2022-10-15T12:38:09;22.83;;;19.30;;
12469;SDS011;36499;46.484;13.832;2022-10-15T12:40:53;21.13;;;18.83;;
12469;SDS011;36499;46.484;13.832;2022-10-15T12:43:29;23.43;;;20.90;;
12469;SDS011;36499;46.484;13.832;2022-10-15T12:46:01;22.27;;;19.20;;
12469;SDS011;36499;46.484;13.832;2022-10-15T12:48:32;23.73;;;21.27;;
12469;SDS011;36499;46.484;13.832;2022-10-15T13:00:32;25.27;;;22.57;;
12469;SDS011;36499;46.484;13.832;2022-10-15T13:09:13;31.27;;;25.97;;
12469;SDS011;36499;46.484;13.832;2022-10-15T13:11:53;28.27;;;24.40;;
12469;SDS011;36499;46.484;13.832;2022-10-15T13:14:26;29.87;;;23.63;;
12469;SDS011;36499;46.484;13.832;2022-10-15T13:17:00;24.80;;;21.63;;
12469;SDS011;36499;46.484;13.832;2022-10-15T13:19:33;23.50;;;21.03;;
12469;SDS011;36499;46.484;13.832;2022-10-15T13:22:06;28.90;;;21.53;;
12469;SDS011;36499;46.484;13.832;2022-10-15T13:24:47;25.20;;;22.47;;
12469;SDS011;36499;46.484;13.832;2022-10-15T13:27:15;24.20;;;21.60;;
12469;SDS011;36499;46.484;13.832;2022-10-15T13:29:54;25.43;;;22.10;;
12469;SDS011;36499;46.484;13.832;2022-10-15T13:32:27;23.17;;;20.87;;
12469;SDS011;36499;46.484;13.832;2022-10-15T13:35:01;25.70;;;22.47;;
12469;SDS011;36499;46.484;13.832;2022-10-15T13:37:37;27.27;;;23.60;;
12469;SDS011;36499;46.484;13.832;2022-10-15T13:40:15;26.47;;;22.33;;
12469;SDS011;36499;46.484;13.832;2022-10-15T13:42:57;23.77;;;21.27;;
12469;SDS011;36499;46.484;13.832;2022-10-15T13:45:26;26.03;;;23.40;;
12469;SDS011;36499;46.484;13.832;2022-10-15T13:47:55;23.70;;;21.20;;
12469;SDS011;36499;46.484;13.832;2022-10-15T13:50:23;25.10;;;22.43;;
12469;SDS011;36499;46.484;13.832;2022-10-15T13:52:54;27.70;;;23.70;;
12469;SDS011;36499;46.484;13.832;2022-10-15T13:55:25;26.07;;;23.37;;
12469;SDS011;36499;46.484;13.832;2022-10-15T13:57:56;24.70;;;21.83;;
12469;SDS011;36499;46.484;13.832;2022-10-15T14:00:28;27.03;;;23.33;;
12469;SDS011;36499;46.484;13.832;2022-10-15T14:03:18;43.57;;;35.30;;
12469;SDS011;36499;46.484;13.832;2022-10-15T14:05:48;25.57;;;22.83;;
12469;SDS011;36499;46.484;13.832;2022-10-15T14:08:25;26.93;;;24.10;;
12469;SDS011;36499;46.484;13.832;2022-10-15T14:10:58;26.87;;;23.70;;
12469;SDS011;36499;46.484;13.832;2022-10-15T14:13:26;25.30;;;21.97;;
12469;SDS011;36499;46.484;13.832;2022-10-15T14:16:09;26.33;;;23.30;;
12469;SDS011;36499;46.484;13.832;2022-10-15T14:18:47;29.20;;;23.03;;
12469;SDS011;36499;46.484;13.832;2022-10-15T14:21:19;28.13;;;23.03;;
12469;SDS011;36499;46.484;13.832;2022-10-15T14:24:00;25.93;;;22.53;;
12469;SDS011;36499;46.484;13.832;2022-10-15T14:26:31;26.80;;;22.80;;
12469;SDS011;36499;46.484;13.832;2022-10-15T14:28:59;25.87;;;22.83;;
12469;SDS011;36499;46.484;13.832;2022-10-15T14:31:30;25.07;;;22.33;;
12469;SDS011;36499;46.484;13.832;2022-10-15T14:34:29;26.07;;;23.30;;
12469;SDS011;36499;46.484;13.832;2022-10-15T14:40:11;25.87;;;23.20;;
12469;SDS011;36499;46.484;13.832;2022-10-15T14:42:44;25.90;;;23.20;;
12469;SDS011;36499;46.484;13.832;2022-10-15T14:45:20;27.10;;;24.20;;
12469;SDS011;36499;46.484;13.832;2022-10-15T14:47:56;32.53;;;26.90;;
12469;SDS011;36499;46.484;13.832;2022-10-15T14:50:29;29.33;;;24.10;;
12469;SDS011;36499;46.484;13.832;2022-10-15T14:52:58;26.60;;;23.70;;
12469;SDS011;36499;46.484;13.832;2022-10-15T14:55:32;27.27;;;23.90;;
12469;SDS011;36499;46.484;13.832;2022-10-15T14:58:06;30.90;;;27.00;;
12469;SDS011;36499;46.484;13.832;2022-10-15T15:00:38;32.57;;;23.77;;
12469;SDS011;36499;46.484;13.832;2022-10-15T15:03:10;27.80;;;24.73;;